Time;durP1;ratioP1;P1;durP2;ratioP2;P2;SDS_P1;SDS_P2;PMS_P1;PMS_P2;Temp;Humidity;BMP_temperature;BMP_pressure;BME280_temperature;BME280_humidity;BME280_pressure;Samples;Min_cycle;Max_cycle;Signal;HPM_P1;HPM_P2
2022/09/05 00:02:54;;;;;;;6.20;2.88;;;18.80;96.70;;;;;;5017169;28;20087;-72
2022/09/05 00:05:49;;;;;;;6.20;3.03;;;18.80;96.90;;;;;;5055468;28;20106;-73
2022/09/05 00:08:46;;;;;;;6.80;3.10;;;18.70;96.70;;;;;;5032784;28;20053;-73
2022/09/05 00:11:30;;;;;;;6.03;3.08;;;18.70;97.20;;;;;;5056534;28;20132;-72
2022/09/05 00:14:04;;;;;;;5.63;3.55;;;18.50;97.10;;;;;;5055831;28;20041;-73
2022/09/05 00:16:35;;;;;;;5.10;2.70;;;18.60;96.90;;;;;;5055994;28;20057;-71
2022/09/05 00:19:14;;;;;;;6.93;2.80;;;18.60;96.90;;;;;;5055913;28;20144;-73
2022/09/05 00:21:52;;;;;;;7.03;3.00;;;18.50;96.90;;;;;;5055846;28;20045;-73
2022/09/05 00:24:47;;;;;;;5.75;2.90;;;18.50;97.00;;;;;;5022259;28;20064;-73
2022/09/05 00:27:27;;;;;;;5.28;3.28;;;18.40;97.30;;;;;;5042142;28;20060;-71
2022/09/05 00:30:12;;;;;;;5.10;3.10;;;18.50;97.20;;;;;;5055503;28;20524;-72
2022/09/05 00:32:54;;;;;;;5.43;3.35;;;18.40;97.40;;;;;;5038479;28;20499;-72
2022/09/05 00:35:29;;;;;;;6.88;3.08;;;18.40;97.20;;;;;;5055606;28;20049;-72
2022/09/05 00:37:57;;;;;;;13.07;3.40;;;18.40;97.30;;;;;;5021418;28;20056;-71
2022/09/05 00:40:38;;;;;;;5.35;2.85;;;18.30;97.40;;;;;;5055394;28;20114;-72
2022/09/05 00:43:23;;;;;;;6.50;3.17;;;18.30;97.50;;;;;;5055153;28;20445;-72
2022/09/05 00:45:58;;;;;;;9.15;3.13;;;18.30;97.50;;;;;;5055565;28;20091;-72
2022/09/05 00:48:49;;;;;;;7.10;3.45;;;18.30;97.60;;;;;;5020615;28;20041;-72
2022/09/05 00:51:41;;;;;;;5.15;3.05;;;18.20;97.60;;;;;;5038518;28;20104;-72
2022/09/05 00:54:18;;;;;;;11.63;3.72;;;18.20;97.60;;;;;;5055147;28;20081;-71
2022/09/05 00:57:29;;;;;;;6.20;3.13;;;18.20;97.60;;;;;;5054950;28;20041;-71
2022/09/05 01:00:13;;;;;;;6.45;3.13;;;18.10;97.80;;;;;;5042265;28;20060;-73
2022/09/05 01:03:14;;;;;;;5.40;3.20;;;18.10;97.70;;;;;;5038162;28;20088;-72
2022/09/05 01:06:01;;;;;;;6.43;3.28;;;18.10;97.80;;;;;;5055728;28;20122;-71
2022/09/05 01:08:54;;;;;;;5.18;3.45;;;18.00;97.90;;;;;;5055138;28;20117;-72
2022/09/05 01:11:49;;;;;;;5.30;3.47;;;18.00;98.10;;;;;;5054725;28;20045;-73
2022/09/05 01:14:45;;;;;;;9.30;3.72;;;17.90;98.30;;;;;;5055035;28;20158;-73
2022/09/05 01:17:28;;;;;;;6.40;3.30;;;17.90;98.20;;;;;;5055080;28;20037;-74
2022/09/05 01:20:02;;;;;;;10.27;3.20;;;17.70;98.40;;;;;;5054813;28;20124;-73
2022/09/05 01:23:12;;;;;;;5.75;3.40;;;17.80;98.40;;;;;;5037712;28;20049;-72
2022/09/05 01:25:59;;;;;;;5.13;3.67;;;17.80;98.60;;;;;;5055094;28;20420;-72
2022/09/05 01:28:43;;;;;;;6.05;3.30;;;17.70;98.80;;;;;;5055096;28;20075;-72
2022/09/05 01:31:29;;;;;;;6.85;3.55;;;17.70;98.70;;;;;;5054844;28;20574;-72
2022/09/05 01:34:30;;;;;;;6.57;3.60;;;17.70;98.70;;;;;;5054944;28;20044;-74
2022/09/05 01:36:58;;;;;;;7.18;4.05;;;17.60;98.90;;;;;;5054948;28;20140;-72
2022/09/05 01:39:45;;;;;;;6.72;3.50;;;17.60;99.00;;;;;;5055020;28;20346;-73
2022/09/05 01:42:36;;;;;;;5.40;3.30;;;17.60;99.20;;;;;;5054465;28;20052;-72
2022/09/05 01:45:08;;;;;;;6.63;3.33;;;17.50;99.00;;;;;;5037045;28;20045;-72
2022/09/05 01:48:20;;;;;;;7.93;3.85;;;17.50;99.00;;;;;;5054712;28;20531;-73
2022/09/05 01:51:16;;;;;;;5.63;3.38;;;17.50;99.10;;;;;;4993099;28;20141;-71
2022/09/05 01:53:51;;;;;;;6.35;3.53;;;17.40;99.20;;;;;;5054988;28;20059;-73
2022/09/05 01:56:28;;;;;;;6.38;3.25;;;17.30;99.20;;;;;;5054154;28;20052;-72
2022/09/05 01:59:12;;;;;;;7.93;3.60;;;17.40;99.50;;;;;;5054535;28;20449;-73
2022/09/05 02:02:17;;;;;;;7.25;3.70;;;17.30;99.60;;;;;;5057021;28;20419;-72
2022/09/05 02:05:08;;;;;;;9.32;4.20;;;17.30;99.90;;;;;;5058574;28;20040;-72
2022/09/05 02:07:54;;;;;;;6.18;3.90;;;17.20;99.90;;;;;;5058654;28;20084;-72
2022/09/05 02:10:39;;;;;;;8.65;4.35;;;17.20;99.90;;;;;;5058345;28;20139;-71
2022/09/05 02:13:32;;;;;;;7.07;3.75;;;17.20;99.90;;;;;;5058524;28;20041;-72
2022/09/05 02:16:05;;;;;;;12.45;4.25;;;17.10;99.90;;;;;;5057953;28;20471;-73
2022/09/05 02:19:07;;;;;;;7.22;4.18;;;17.00;99.90;;;;;;5057977;28;20099;-73
2022/09/05 02:21:36;;;;;;;10.05;4.63;;;17.00;99.90;;;;;;5058373;28;20041;-72
2022/09/05 02:24:37;;;;;;;7.68;4.57;;;17.00;99.90;;;;;;5058488;28;20045;-71
2022/09/05 02:27:21;;;;;;;7.20;4.38;;;16.90;99.90;;;;;;5040633;28;20082;-71
2022/09/05 02:29:47;;;;;;;7.15;4.57;;;16.90;99.90;;;;;;5058328;28;20091;-72
2022/09/05 02:32:38;;;;;;;5.90;4.32;;;16.80;99.90;;;;;;5057788;28;20080;-73
2022/09/05 02:35:10;;;;;;;8.13;4.60;;;16.70;99.90;;;;;;5040971;28;20048;-73
2022/09/05 02:37:57;;;;;;;9.63;4.63;;;16.80;99.90;;;;;;5058354;28;20430;-74
2022/09/05 02:40:47;;;;;;;5.50;4.22;;;16.80;99.90;;;;;;5057956;28;20389;-73
2022/09/05 02:43:15;;;;;;;8.43;5.00;;;16.70;99.90;;;;;;5057656;28;20126;-71
2022/09/05 02:46:03;;;;;;;9.35;4.97;;;16.70;99.90;;;;;;5057352;28;20056;-73
2022/09/05 02:48:41;;;;;;;5.40;4.55;;;16.70;99.90;;;;;;5057506;28;20052;-73
2022/09/05 02:51:15;;;;;;;6.25;4.72;;;16.60;99.90;;;;;;5057570;28;20061;-72
2022/09/05 02:53:47;;;;;;;7.03;4.57;;;16.50;99.90;;;;;;5057804;28;20055;-72
2022/09/05 02:56:26;;;;;;;5.78;4.60;;;16.50;99.90;;;;;;5058163;28;20436;-73
2022/09/05 02:59:24;;;;;;;6.68;4.82;;;16.50;99.90;;;;;;5022623;28;20068;-72
2022/09/05 03:02:03;;;;;;;6.50;4.47;;;16.40;99.90;;;;;;5057006;28;20053;-71
2022/09/05 03:04:34;;;;;;;7.40;4.85;;;16.40;99.90;;;;;;5057480;28;20045;-72
2022/09/05 03:07:07;;;;;;;8.75;4.78;;;16.40;99.90;;;;;;5057215;28;20449;-72
2022/09/05 03:09:39;;;;;;;6.20;4.95;;;16.30;99.90;;;;;;5057394;28;20354;-71
2022/09/05 03:12:29;;;;;;;13.13;4.75;;;16.30;99.90;;;;;;5038607;28;20045;-72
2022/09/05 03:15:31;;;;;;;7.32;5.15;;;16.30;99.90;;;;;;5057095;28;20056;-73
2022/09/05 03:18:24;;;;;;;10.98;4.60;;;16.20;99.90;;;;;;5057185;28;20049;-73
2022/09/05 03:21:24;;;;;;;8.70;5.05;;;16.20;99.90;;;;;;5057177;28;20051;-72
2022/09/05 03:24:04;;;;;;;7.28;5.55;;;16.20;99.90;;;;;;5057479;28;20367;-73
2022/09/05 03:27:09;;;;;;;10.20;5.20;;;16.10;99.90;;;;;;5057112;28;20067;-72
2022/09/05 03:29:56;;;;;;;7.55;5.57;;;16.10;99.90;;;;;;5057287;28;20111;-73
2022/09/05 03:32:36;;;;;;;7.22;5.63;;;16.10;99.90;;;;;;5056482;28;20045;-72
2022/09/05 03:35:32;;;;;;;6.95;5.45;;;16.10;99.90;;;;;;5056813;28;20084;-73
2022/09/05 03:38:36;;;;;;;8.32;5.53;;;16.10;99.90;;;;;;5039330;28;20136;-72
2022/09/05 03:41:24;;;;;;;8.25;5.35;;;16.00;99.90;;;;;;5038999;28;20049;-72
2022/09/05 03:43:53;;;;;;;7.93;5.60;;;16.00;99.90;;;;;;5039476;28;20059;-72
2022/09/05 03:46:46;;;;;;;9.70;5.63;;;16.00;99.90;;;;;;5056752;28;20397;-72
2022/09/05 03:49:36;;;;;;;9.80;5.43;;;16.00;99.90;;;;;;5056617;28;20475;-72
2022/09/05 03:52:24;;;;;;;7.50;5.00;;;15.90;99.90;;;;;;5038733;28;20072;-73
2022/09/05 03:55:24;;;;;;;6.57;5.07;;;15.90;99.90;;;;;;5056420;28;20064;-72
2022/09/05 03:58:25;;;;;;;9.52;5.45;;;15.80;99.90;;;;;;5056285;28;20057;-72
2022/09/05 04:01:20;;;;;;;5.95;4.75;;;15.80;99.90;;;;;;5052459;28;20049;-72
2022/09/05 04:04:07;;;;;;;7.00;5.35;;;15.80;99.90;;;;;;5056544;28;20045;-72
2022/09/05 04:06:44;;;;;;;6.90;5.40;;;15.70;99.90;;;;;;5056190;28;20084;-71
2022/09/05 04:09:18;;;;;;;7.95;5.85;;;15.70;99.90;;;;;;5055943;28;20095;-72
2022/09/05 04:11:54;;;;;;;10.07;5.57;;;15.70;99.90;;;;;;5038733;28;20057;-72
2022/09/05 04:14:37;;;;;;;6.63;5.05;;;15.70;99.90;;;;;;5056382;28;20400;-73
2022/09/05 04:17:16;;;;;;;7.28;5.55;;;15.70;99.90;;;;;;5055477;28;20059;-72
2022/09/05 04:19:54;;;;;;;6.82;5.50;;;15.60;99.90;;;;;;5056464;28;20377;-74
2022/09/05 04:22:39;;;;;;;9.05;5.22;;;15.60;99.90;;;;;;5055707;28;20053;-73
2022/09/05 04:25:17;;;;;;;8.77;5.53;;;15.60;99.90;;;;;;5055805;28;20127;-72
2022/09/05 04:28:01;;;;;;;8.13;5.75;;;15.60;99.90;;;;;;5038388;28;20049;-72
2022/09/05 04:31:12;;;;;;;7.97;5.82;;;15.50;99.90;;;;;;5055889;28;20045;-73
2022/09/05 04:33:45;;;;;;;9.43;5.65;;;15.50;99.90;;;;;;5001219;28;20058;-71
2022/09/05 04:36:25;;;;;;;7.95;6.25;;;15.50;99.90;;;;;;5055355;28;20442;-71
2022/09/05 04:39:08;;;;;;;7.53;5.50;;;15.50;99.90;;;;;;5055936;28;20060;-72
2022/09/05 04:41:41;;;;;;;12.93;6.07;;;15.50;99.90;;;;;;5055648;28;20059;-72
2022/09/05 04:44:17;;;;;;;;;;;15.40;99.90;;;;;;5021695;28;20060;-73
2022/09/05 04:47:02;;;;;;;10.57;6.05;;;15.40;99.90;;;;;;5055205;28;19920;-72
2022/09/05 04:49:31;;;;;;;7.53;6.05;;;15.40;99.90;;;;;;5055788;28;20049;-73
2022/09/05 04:52:08;;;;;;;8.20;6.03;;;15.40;99.90;;;;;;5055428;28;20068;-72
2022/09/05 04:54:46;;;;;;;10.15;5.68;;;15.30;99.90;;;;;;5055206;28;20080;-73
2022/09/05 04:57:38;;;;;;;10.90;5.75;;;15.30;99.90;;;;;;5055124;28;20037;-71
2022/09/05 05:00:12;;;;;;;7.18;5.95;;;15.30;99.90;;;;;;5054839;28;20523;-71
2022/09/05 05:02:50;;;;;;;10.43;6.20;;;15.30;99.90;;;;;;5055275;28;20396;-71
2022/09/05 05:05:24;;;;;;;8.43;6.05;;;15.30;99.90;;;;;;5055277;28;20464;-71
2022/09/05 05:08:02;;;;;;;9.02;6.10;;;15.30;99.90;;;;;;5055191;28;20111;-73
2022/09/05 05:10:39;;;;;;;6.65;5.75;;;15.30;99.90;;;;;;5037767;28;20094;-72
2022/09/05 05:13:14;;;;;;;8.13;6.45;;;15.30;99.90;;;;;;5037707;28;20453;-72
2022/09/05 05:16:05;;;;;;;11.45;6.35;;;15.20;99.90;;;;;;5037072;28;20053;-72
2022/09/05 05:18:55;;;;;;;8.38;6.05;;;15.30;99.90;;;;;;5055329;28;20052;-71
2022/09/05 05:21:28;;;;;;;8.75;6.10;;;15.30;99.90;;;;;;5054397;28;20132;-71
2022/09/05 05:24:29;;;;;;;8.65;6.38;;;15.30;99.90;;;;;;5054687;28;20346;-72
2022/09/05 05:27:06;;;;;;;9.93;6.57;;;15.40;99.90;;;;;;5024680;28;20057;-73
2022/09/05 05:29:53;;;;;;;9.35;6.53;;;15.40;99.90;;;;;;5037417;28;20056;-73
2022/09/05 05:32:50;;;;;;;7.75;6.55;;;15.40;99.90;;;;;;5034715;28;20085;-71
2022/09/05 05:35:45;;;;;;;16.83;6.80;;;15.40;99.90;;;;;;5033694;28;20061;-72
2022/09/05 05:38:16;;;;;;;8.43;6.40;;;15.40;99.90;;;;;;5032501;28;20376;-71
2022/09/05 05:41:25;;;;;;;7.20;5.68;;;15.50;99.90;;;;;;5035058;28;20060;-72
2022/09/05 05:43:51;;;;;;;8.38;6.32;;;15.50;99.90;;;;;;5008980;28;20060;-71
2022/09/05 05:46:33;;;;;;;10.18;6.20;;;15.50;99.90;;;;;;5049259;28;20156;-73
2022/09/05 05:49:27;;;;;;;7.97;5.97;;;15.60;99.90;;;;;;5054129;28;20135;-71
2022/09/05 05:52:26;;;;;;;8.02;6.38;;;15.60;99.90;;;;;;5054885;28;20114;-73
2022/09/05 05:54:56;;;;;;;9.27;6.53;;;15.70;99.90;;;;;;5054671;28;20049;-71
2022/09/05 05:57:47;;;;;;;9.43;6.35;;;15.70;99.90;;;;;;5054731;28;20037;-72
2022/09/05 06:00:22;;;;;;;9.05;5.75;;;15.80;99.90;;;;;;5054161;28;20045;-72
2022/09/05 06:03:24;;;;;;;10.02;6.38;;;15.80;99.90;;;;;;5036870;28;20370;-72
2022/09/05 06:06:11;;;;;;;7.05;5.95;;;15.80;99.90;;;;;;5054377;28;20124;-72
2022/09/05 06:09:13;;;;;;;9.73;6.60;;;15.90;99.90;;;;;;5054663;28;20056;-71
2022/09/05 06:12:08;;;;;;;8.32;6.32;;;16.00;99.90;;;;;;5054528;28;20049;-72
2022/09/05 06:14:39;;;;;;;7.40;6.38;;;16.20;99.90;;;;;;5054593;28;20140;-71
2022/09/05 06:17:42;;;;;;;10.65;6.55;;;16.70;99.90;;;;;;5036458;28;20049;-72
2022/09/05 06:20:22;;;;;;;12.60;6.30;;;17.60;99.90;;;;;;5054283;28;20504;-73
2022/09/05 06:23:06;;;;;;;8.90;6.15;;;18.60;99.90;;;;;;5054412;28;20346;-72
2022/09/05 06:25:58;;;;;;;8.82;5.57;;;19.60;99.90;;;;;;5054283;28;20049;-71
2022/09/05 06:28:49;;;;;;;10.50;5.68;;;20.50;99.90;;;;;;5036671;28;20049;-73
2022/09/05 06:31:57;;;;;;;8.27;5.72;;;21.30;98.40;;;;;;5053885;28;20045;-72
2022/09/05 06:34:45;;;;;;;8.43;5.22;;;21.60;97.90;;;;;;5037628;28;20462;-74
2022/09/05 06:37:25;;;;;;;8.88;5.40;;;21.80;97.30;;;;;;5054304;28;20056;-73
2022/09/05 06:40:04;;;;;;;10.25;5.20;;;21.30;96.70;;;;;;5054090;28;20081;-72
2022/09/05 06:42:54;;;;;;;10.30;5.60;;;20.80;96.60;;;;;;5054374;28;20063;-72
2022/09/05 06:45:42;;;;;;;9.70;5.68;;;20.30;97.20;;;;;;5053913;28;20544;-71
2022/09/05 06:48:33;;;;;;;14.45;5.80;;;19.90;98.10;;;;;;5056806;28;20060;-72
2022/09/05 06:51:24;;;;;;;7.28;5.97;;;19.60;98.50;;;;;;5050763;28;20123;-72
2022/09/05 06:54:17;;;;;;;11.07;5.35;;;19.40;98.90;;;;;;5057403;28;20131;-73
2022/09/05 06:56:45;;;;;;;10.82;5.43;;;19.30;99.10;;;;;;5057718;28;20040;-71
2022/09/05 06:59:48;;;;;;;10.27;5.65;;;19.10;99.30;;;;;;5057627;28;20074;-73
2022/09/05 07:02:20;;;;;;;11.75;6.85;;;19.10;99.80;;;;;;5057090;28;20037;-73
2022/09/05 07:05:04;;;;;;;8.60;4.85;;;19.00;99.80;;;;;;5057387;28;20041;-73
2022/09/05 07:07:43;;;;;;;6.40;5.15;;;19.10;99.90;;;;;;5057480;28;20132;-73
2022/09/05 07:10:29;;;;;;;9.35;5.45;;;19.20;99.90;;;;;;5056633;28;20491;-71
2022/09/05 07:13:19;;;;;;;8.30;5.57;;;19.30;99.80;;;;;;5039559;28;20044;-72
2022/09/05 07:15:51;;;;;;;11.20;4.95;;;19.30;99.90;;;;;;5057207;28;20052;-73
2022/09/05 07:18:33;;;;;;;13.18;5.60;;;19.30;99.90;;;;;;5056875;28;20454;-72
2022/09/05 07:21:08;;;;;;;12.05;5.03;;;19.40;99.90;;;;;;5057355;28;20041;-72
2022/09/05 07:23:47;;;;;;;9.50;5.47;;;19.40;99.90;;;;;;5056873;28;20087;-72
2022/09/05 07:26:17;;;;;;;6.22;5.15;;;19.40;99.90;;;;;;5057363;28;20053;-74
2022/09/05 07:28:46;;;;;;;8.77;6.13;;;19.50;99.90;;;;;;5057153;28;20132;-73
2022/09/05 07:31:24;;;;;;;12.25;5.45;;;19.50;99.90;;;;;;5056617;28;20052;-71
2022/09/05 07:34:04;;;;;;;10.90;5.68;;;19.50;99.90;;;;;;5056500;28;20057;-72
2022/09/05 07:36:38;;;;;;;8.32;5.15;;;19.60;99.90;;;;;;5056774;28;20045;-72
2022/09/05 07:39:05;;;;;;;12.32;5.30;;;19.60;99.90;;;;;;5056679;28;20053;-72
2022/09/05 07:41:33;;;;;;;9.75;5.30;;;19.70;99.90;;;;;;5056635;28;20048;-72
2022/09/05 07:44:10;;;;;;;10.57;5.55;;;19.80;99.90;;;;;;5057038;28;20049;-72
2022/09/05 07:46:40;;;;;;;15.63;5.10;;;19.90;99.90;;;;;;5056080;28;20041;-73
2022/09/05 07:49:16;;;;;;;10.27;5.47;;;20.00;99.90;;;;;;5056609;28;20060;-73
2022/09/05 07:51:53;;;;;;;8.23;5.60;;;20.20;99.80;;;;;;5056353;28;20056;-71
2022/09/05 07:54:35;;;;;;;12.27;5.65;;;20.20;99.40;;;;;;5056303;28;20449;-73
2022/09/05 07:57:08;;;;;;;7.30;4.95;;;20.40;99.50;;;;;;5055860;28;20056;-73
2022/09/05 07:59:36;;;;;;;;;;;20.50;99.40;;;;;;5056764;28;20109;-73
2022/09/05 08:02:03;;;;;;;6.93;4.97;;;20.60;99.40;;;;;;5056148;28;19916;-72
2022/09/05 08:04:31;;;;;;;9.75;4.97;;;20.70;99.40;;;;;;5056154;28;20230;-72
2022/09/05 08:06:59;;;;;;;12.35;5.30;;;20.90;99.30;;;;;;5056557;28;20424;-73
2022/09/05 08:09:36;;;;;;;11.90;5.13;;;21.00;99.20;;;;;;5056131;28;20045;-72
2022/09/05 08:12:16;;;;;;;10.00;5.40;;;21.00;99.10;;;;;;5056460;28;20055;-72
2022/09/05 08:14:58;;;;;;;12.32;5.45;;;21.10;99.10;;;;;;5055833;28;20051;-73
2022/09/05 08:17:25;;;;;;;21.77;4.65;;;21.30;98.60;;;;;;5019024;28;20050;-72
2022/09/05 08:20:06;;;;;;;9.95;5.00;;;21.40;98.70;;;;;;5035995;28;20056;-74
2022/09/05 08:22:52;;;;;;;9.30;5.28;;;21.50;98.40;;;;;;5036175;28;20053;-71
2022/09/05 08:25:25;;;;;;;13.32;4.90;;;21.50;98.10;;;;;;5036729;28;20059;-73
2022/09/05 08:28:01;;;;;;;9.68;4.75;;;21.70;98.10;;;;;;5055695;28;20049;-72
2022/09/05 08:30:29;;;;;;;16.00;5.45;;;21.80;98.30;;;;;;5055759;28;20041;-72
2022/09/05 08:33:01;;;;;;;10.45;4.72;;;22.00;98.30;;;;;;5055916;28;20094;-72
2022/09/05 08:35:51;;;;;;;11.80;4.28;;;22.10;98.10;;;;;;5055229;28;20428;-72
2022/09/05 08:38:17;;;;;;;11.68;5.15;;;22.40;98.10;;;;;;5055274;28;20478;-72
2022/09/05 08:40:59;;;;;;;9.20;4.93;;;22.60;97.90;;;;;;5055246;28;20120;-73
2022/09/05 08:43:51;;;;;;;9.05;4.40;;;22.80;98.00;;;;;;5055261;28;20453;-72
2022/09/05 08:46:32;;;;;;;6.97;4.55;;;23.10;97.50;;;;;;5055625;28;20044;-72
2022/09/05 08:49:26;;;;;;;9.45;3.80;;;23.20;97.40;;;;;;5055272;28;20044;-71
2022/09/05 08:51:57;;;;;;;6.10;4.00;;;23.40;97.50;;;;;;5055539;28;20091;-73
2022/09/05 08:55:02;;;;;;;8.35;4.63;;;23.70;97.30;;;;;;5055150;28;20174;-74
2022/09/05 08:57:53;;;;;;;7.18;4.70;;;23.90;95.90;;;;;;5054583;28;20116;-72
2022/09/05 09:00:19;;;;;;;7.72;4.60;;;24.00;96.40;;;;;;5037824;28;20128;-72
2022/09/05 09:03:22;;;;;;;6.45;4.13;;;24.00;96.00;;;;;;5055313;28;20040;-71
2022/09/05 09:05:53;;;;;;;8.30;4.72;;;24.00;96.00;;;;;;5055421;28;20033;-73
2022/09/05 09:08:42;;;;;;;11.13;4.45;;;24.00;96.40;;;;;;5055226;28;20110;-73
2022/09/05 09:11:22;;;;;;;10.35;4.90;;;24.20;96.40;;;;;;5054755;28;20059;-73
2022/09/05 09:14:15;;;;;;;7.50;4.05;;;24.30;95.90;;;;;;5054614;28;20049;-73
2022/09/05 09:17:18;;;;;;;9.77;4.25;;;24.60;95.70;;;;;;5055077;28;20369;-73
2022/09/05 09:20:12;;;;;;;8.13;3.92;;;25.00;95.80;;;;;;5055433;28;20067;-73
2022/09/05 09:22:50;;;;;;;9.52;4.30;;;25.60;94.70;;;;;;5015603;28;20064;-72
2022/09/05 09:25:43;;;;;;;7.32;4.78;;;26.10;93.60;;;;;;5055230;28;20098;-72
2022/09/05 09:28:27;;;;;;;;;;;26.60;93.30;;;;;;5035614;28;20103;-73
2022/09/05 09:31:05;;;;;;;12.32;4.25;;;27.10;93.20;;;;;;5034871;28;20315;-73
2022/09/05 09:33:59;;;;;;;9.15;4.15;;;27.50;93.00;;;;;;5035076;28;20049;-72
2022/09/05 09:36:41;;;;;;;12.30;4.15;;;27.70;92.80;;;;;;5025179;28;20092;-72
2022/09/05 09:39:27;;;;;;;16.05;4.15;;;27.50;92.00;;;;;;5035059;28;20053;-73
2022/09/05 09:42:25;;;;;;;7.72;2.63;;;26.90;92.50;;;;;;5048866;28;20111;-73
2022/09/05 09:45:21;;;;;;;9.32;3.40;;;26.50;93.10;;;;;;5053746;28;20140;-74
2022/09/05 09:48:04;;;;;;;6.63;2.92;;;26.30;93.10;;;;;;5054842;28;20485;-74
2022/09/05 09:51:06;;;;;;;7.32;3.08;;;26.20;93.40;;;;;;5054998;28;20045;-73
2022/09/05 09:53:50;;;;;;;7.88;3.17;;;26.10;93.20;;;;;;5054316;28;20126;-73
2022/09/05 09:56:43;;;;;;;4.68;2.63;;;26.00;93.40;;;;;;5054055;28;20041;-73
2022/09/05 09:59:36;;;;;;;5.10;2.50;;;26.00;93.40;;;;;;5053920;28;20369;-73
2022/09/05 10:02:29;;;;;;;5.22;2.40;;;26.10;93.60;;;;;;5054522;28;20049;-73
2022/09/05 10:05:12;;;;;;;5.10;2.00;;;26.10;93.40;;;;;;5054582;28;20132;-74
2022/09/05 10:07:48;;;;;;;5.95;3.00;;;26.30;93.30;;;;;;5054406;28;20402;-74
2022/09/05 10:10:50;;;;;;;8.18;2.80;;;26.30;92.70;;;;;;5037034;28;20049;-72
2022/09/05 10:13:43;;;;;;;7.10;2.60;;;26.30;93.10;;;;;;5054592;28;20080;-73
2022/09/05 10:16:45;;;;;;;11.57;2.78;;;26.40;93.50;;;;;;5054131;28;20048;-73
2022/09/05 10:19:29;;;;;;;11.45;2.22;;;26.60;93.50;;;;;;5054572;28;20057;-74
2022/09/05 10:22:17;;;;;;;5.38;2.70;;;26.70;93.20;;;;;;5055746;28;20434;-73
2022/09/05 10:24:53;;;;;;;9.75;2.95;;;26.90;92.90;;;;;;5058322;28;20366;-73
2022/09/05 10:27:44;;;;;;;5.82;2.35;;;27.00;92.40;;;;;;5057919;28;20455;-73
2022/09/05 10:30:47;;;;;;;4.40;2.50;;;27.00;92.40;;;;;;5034229;28;20109;-73
2022/09/05 10:33:42;;;;;;;7.23;2.60;;;27.00;92.00;;;;;;5040438;28;20052;-73
2022/09/05 10:36:44;;;;;;;6.47;2.67;;;27.00;91.80;;;;;;5057960;28;20271;-74
2022/09/05 10:39:25;;;;;;;5.45;2.00;;;27.00;92.00;;;;;;5026259;28;20053;-73
2022/09/05 10:42:01;;;;;;;3.92;2.20;;;27.10;92.90;;;;;;5057913;28;20071;-73
2022/09/05 10:44:39;;;;;;;7.35;2.50;;;27.20;91.80;;;;;;5057542;28;20041;-74
2022/09/05 10:47:31;;;;;;;6.03;2.13;;;27.30;91.30;;;;;;5056839;28;20469;-75
2022/09/05 10:50:12;;;;;;;5.50;1.98;;;27.30;91.50;;;;;;5057931;28;20049;-73
2022/09/05 10:53:06;;;;;;;6.45;1.98;;;27.40;91.10;;;;;;5057696;28;20190;-72
2022/09/05 10:55:54;;;;;;;4.63;2.03;;;27.40;91.10;;;;;;5057560;28;20134;-74
2022/09/05 10:58:51;;;;;;;5.22;2.20;;;27.60;91.50;;;;;;5048021;28;20053;-73
2022/09/05 11:01:25;;;;;;;4.38;2.30;;;27.70;90.90;;;;;;5057342;28;20434;-74
2022/09/05 11:04:14;;;;;;;4.10;2.00;;;27.70;91.00;;;;;;5057307;28;20128;-74
2022/09/05 11:06:50;;;;;;;5.55;2.03;;;27.70;91.30;;;;;;5057338;28;20041;-74
2022/09/05 11:09:50;;;;;;;3.72;1.80;;;27.80;91.00;;;;;;5058058;28;20041;-72
2022/09/05 11:12:46;;;;;;;7.10;2.13;;;27.90;90.60;;;;;;5057179;28;20457;-72
2022/09/05 11:15:39;;;;;;;6.80;1.83;;;27.80;90.90;;;;;;5057171;28;20187;-72
2022/09/05 11:18:37;;;;;;;7.30;1.80;;;27.90;91.20;;;;;;5057208;28;20514;-72
2022/09/05 11:21:12;;;;;;;3.55;2.20;;;28.00;91.00;;;;;;5057009;28;20056;-73
2022/09/05 11:23:44;;;;;;;3.72;1.90;;;28.20;91.10;;;;;;5057318;28;20059;-72
2022/09/05 11:26:26;;;;;;;8.20;2.17;;;28.20;90.70;;;;;;5057219;28;20049;-73
2022/09/05 11:29:19;;;;;;;5.70;2.08;;;28.20;90.40;;;;;;5056965;28;20127;-73
2022/09/05 11:31:48;;;;;;;4.95;2.13;;;28.10;90.30;;;;;;5038177;28;20114;-72
2022/09/05 11:34:31;;;;;;;4.15;2.17;;;28.10;90.40;;;;;;5055847;28;20449;-72
2022/09/05 11:37:00;;;;;;;5.25;2.38;;;28.20;90.40;;;;;;5057016;28;20045;-73
2022/09/05 11:40:02;;;;;;;4.50;2.22;;;28.30;90.70;;;;;;5056775;28;20159;-73
2022/09/05 11:42:51;;;;;;;6.78;2.63;;;28.50;90.80;;;;;;5039776;28;20357;-73
2022/09/05 11:45:36;;;;;;;3.67;2.40;;;28.70;89.90;;;;;;5057042;28;20048;-74
2022/09/05 11:48:20;;;;;;;7.25;2.03;;;28.50;89.50;;;;;;5056221;28;20041;-74
2022/09/05 11:50:49;;;;;;;4.03;2.15;;;28.50;90.30;;;;;;5039637;28;20049;-73
2022/09/05 11:53:43;;;;;;;4.65;2.13;;;28.50;90.30;;;;;;5056862;28;20056;-72
2022/09/05 11:56:27;;;;;;;5.68;2.13;;;28.70;90.20;;;;;;5056426;28;20041;-74
2022/09/05 11:59:17;;;;;;;6.63;2.38;;;28.70;90.40;;;;;;5056662;28;20370;-74
2022/09/05 12:02:01;;;;;;;4.43;2.20;;;28.80;90.20;;;;;;5038248;28;20481;-72
2022/09/05 12:04:57;;;;;;;3.83;2.10;;;28.80;88.80;;;;;;5056350;28;20044;-73
2022/09/05 12:07:50;;;;;;;11.55;2.38;;;28.80;89.50;;;;;;5056244;28;20103;-72
2022/09/05 12:10:41;;;;;;;3.97;2.17;;;28.60;89.10;;;;;;5056299;28;20056;-72
2022/09/05 12:13:45;;;;;;;3.35;2.15;;;28.60;89.80;;;;;;5055927;28;20509;-74
2022/09/05 12:16:18;;;;;;;3.63;2.38;;;28.40;89.30;;;;;;5048488;28;20088;-72
2022/09/05 12:19:00;;;;;;;4.25;1.90;;;28.40;89.80;;;;;;5056240;28;20421;-72
2022/09/05 12:21:41;;;;;;;8.98;2.20;;;28.60;90.30;;;;;;5056268;28;20444;-74
2022/09/05 12:24:36;;;;;;;7.70;2.38;;;28.70;90.00;;;;;;5055836;28;20056;-73
2022/09/05 12:27:07;;;;;;;3.58;2.10;;;28.70;90.20;;;;;;5056113;28;20052;-73
2022/09/05 12:29:36;;;;;;;4.43;2.00;;;28.60;90.00;;;;;;5056140;28;20048;-74
2022/09/05 12:32:10;;;;;;;5.20;2.13;;;28.60;89.80;;;;;;5055460;28;20045;-73
2022/09/05 12:34:52;;;;;;;5.88;2.22;;;28.50;89.20;;;;;;5056098;28;20067;-72
2022/09/05 12:37:31;;;;;;;3.00;1.93;;;28.50;88.20;;;;;;5055462;28;20096;-73
2022/09/05 12:40:24;;;;;;;7.30;2.00;;;28.30;89.10;;;;;;5055150;28;20758;-73
2022/09/05 12:42:52;;;;;;;4.55;1.88;;;28.20;89.20;;;;;;5055971;28;20045;-73
2022/09/05 12:45:31;;;;;;;4.95;2.00;;;28.20;90.10;;;;;;5054141;28;20064;-72
2022/09/05 12:48:36;;;;;;;3.78;1.95;;;28.30;90.10;;;;;;5055338;28;20122;-73
2022/09/05 12:51:08;;;;;;;4.05;1.70;;;28.50;89.00;;;;;;5055514;28;20408;-73
2022/09/05 12:53:56;;;;;;;3.40;1.70;;;28.80;89.80;;;;;;5055739;28;20095;-73
2022/09/05 12:56:46;;;;;;;6.70;1.90;;;29.10;88.60;;;;;;5055167;28;20085;-72
2022/09/05 12:59:21;;;;;;;3.95;1.60;;;29.30;87.10;;;;;;5055250;28;20049;-72
2022/09/05 13:02:02;;;;;;;14.55;3.05;;;29.40;87.40;;;;;;5035352;28;20037;-74
2022/09/05 13:04:36;;;;;;;4.68;1.90;;;29.50;87.60;;;;;;5035265;28;20049;-74
2022/09/05 13:07:08;;;;;;;3.80;1.73;;;29.70;87.50;;;;;;5035552;28;20054;-73
2022/09/05 13:09:47;;;;;;;2.70;1.50;;;29.90;87.50;;;;;;5035526;28;20120;-74
2022/09/05 13:12:15;;;;;;;4.38;1.70;;;29.90;86.60;;;;;;5035138;28;20124;-73
2022/09/05 13:15:04;;;;;;;8.00;1.92;;;30.00;87.10;;;;;;5040214;28;20400;-72
2022/09/05 13:17:37;;;;;;;4.28;1.67;;;30.10;87.20;;;;;;5054698;28;20063;-73
2022/09/05 13:20:11;;;;;;;3.80;2.08;;;30.00;85.60;;;;;;5055256;28;20115;-72
2022/09/05 13:22:39;;;;;;;5.78;1.80;;;30.00;86.10;;;;;;5037158;28;20063;-73
2022/09/05 13:25:17;;;;;;;3.22;1.60;;;30.00;85.50;;;;;;5055088;28;20045;-74
2022/09/05 13:27:55;;;;;;;3.30;1.65;;;30.00;86.00;;;;;;5054797;28;20049;-74
2022/09/05 13:30:24;;;;;;;3.92;1.75;;;30.30;86.10;;;;;;5054429;28;20040;-73
2022/09/05 13:32:52;;;;;;;3.08;1.65;;;30.40;86.00;;;;;;5053788;28;20090;-73
2022/09/05 13:35:27;;;;;;;2.90;1.50;;;30.40;83.90;;;;;;5054362;28;20446;-73
2022/09/05 13:38:12;;;;;;;3.72;1.67;;;30.30;84.80;;;;;;5054282;28;20061;-73
2022/09/05 13:40:48;;;;;;;2.78;1.30;;;30.30;84.40;;;;;;5054731;28;20555;-73
2022/09/05 13:43:15;;;;;;;3.25;1.40;;;30.30;84.00;;;;;;5054547;28;20512;-73
2022/09/05 13:46:18;;;;;;;8.02;1.60;;;30.40;83.80;;;;;;5054855;28;20045;-73
2022/09/05 13:48:56;;;;;;;3.03;1.75;;;30.50;84.50;;;;;;5055181;28;20349;-72
2022/09/05 13:51:43;;;;;;;2.45;1.48;;;30.60;83.30;;;;;;5036929;28;20053;-73
2022/09/05 13:54:11;;;;;;;5.75;1.65;;;30.70;82.50;;;;;;5054371;28;20048;-72
2022/09/05 13:56:52;;;;;;;5.28;1.80;;;30.70;82.80;;;;;;5057516;28;20085;-74
2022/09/05 13:59:22;;;;;;;3.13;1.63;;;30.50;83.20;;;;;;5058929;28;20052;-73
2022/09/05 14:02:00;;;;;;;5.68;1.40;;;30.40;83.60;;;;;;5023717;28;20049;-73
2022/09/05 14:04:55;;;;;;;2.42;1.40;;;30.40;83.40;;;;;;5058788;28;20037;-73
2022/09/05 14:07:59;;;;;;;3.72;1.48;;;30.40;83.50;;;;;;5058068;28;20361;-73
2022/09/05 14:11:07;;;;;;;4.32;1.58;;;30.50;84.40;;;;;;5058753;28;20128;-73
2022/09/05 14:13:43;;;;;;;5.85;1.63;;;30.50;83.10;;;;;;5058325;28;20048;-73